Portada
METAR-TAF:

METAR-TAF

Aeroports :

Mae Hong Son, Tailàndia

latitud: 19-18N, longitud: 097-50E, altitud: 267 m

Observació

L'informe es va fer fa 3 hores i 0 minuts, a les 01:00 UTC
Temperatura 17°C
Humitat 94%
Pressió 1015 hPa
Visibilitat: 4000 m
Escasses núvols a una alçada de 1200 ft
boirina

METAR: VTCH 010100Z /////KT 4000 BR FEW012 17/16 Q1015 BECMG 6000 NSW

Hora: 11:00 (04:00 UTC)

Pronòstic

L'informe es va fer fa 5 hores i 0 minuts, a les 23:00 UTC
Pronòstic vàlid del 01 a les 00 UTC al 01 a les 24 UTC
Vent 5 kt del Oest
Visibilitat: 6000 m

TAF: VTCH 282300Z 0100/0124 26005KT 6000 NSC

Observacions i pronòstics meteorològics de més de 4000 aeroports (METAR i TAF).

Les estacions disponibles són els punts grocs i vermells al mapa.

Posi el ratolí al punt desitjat per veure el nom de l'estació.

Feu clic per veure les observacions i els pronòstics meteorològics.

Per canviar el mapa: feu clic els botons verds amb una creu de color negre per apropar; al botó verd amb un guió per allunyar la imatge; o en les fletxes verdes per a mapes adjacents.


METAR-TAF: